PWSweather.com
Personal Weather Stations
Station Observations
OFENA
OfenaIT

OfenaIT

Lat: 42.328, Lon: 13.761

Elevation: 500

Station Type: PCE-FW20

High Low Average
Temperature 59.5°F15.3°F 39.0°F3.9°F 49.3°F9.6°F
Dew Point 19.0°F-7.2°F 6.4°F-14.2°F 12.9°F-10.6°F
Winds 6.9 mph S11.1 mph S Calm Calm 2.7 mph 4.3 mph
Wind Gusts 11.4 mph18.3 mph -- 6.3 mph10.1 mph
Humidity 32% 20% 23%
Pressure 29.65 in1004.10 in 29.54 in1000.30 in -
Precipitation 0.04 in1.00 in - -
Hour Temp Dew Point Humidity Winds Wind Gusts Pressure Precip Precip Rate Daily Precip Total
09:54 AM 42.8°F6.0°C 11.9°F-11.2°C 28% Calm Calm -- 29.58 in1001.7 mb 0.04 in1.0 mm 0.04 in1.0 mm 0.04 in1.0 mm
09:55 AM 42.1°F5.6°C 13.6°F-10.2°C 31% Calm Calm -- 29.64 in1003.7 mb 0.00 in0.0 mm 0.00 in0.0 mm 0.04 in1.0 mm
10:00 AM 47.8°F8.8°C 13.7°F-10.2°C 25% Calm Calm -- 29.65 in1004.1 mb 0.00 in0.0 mm 0.00 in0.0 mm 0.04 in1.0 mm
10:10 AM 46.6°F8.1°C 12.7°F-10.7°C 25% 0.7 mph SE1.1 kmh SE 5.4 mph8.7 kmh 29.65 in1004.1 mb 0.00 in0.0 mm 0.00 in0.0 mm 0.04 in1.0 mm
10:20 AM 46.9°F8.3°C 13.0°F-10.6°C 25% 1.6 mph ESE2.6 kmh ESE 4.5 mph7.2 kmh 29.65 in1004.1 mb 0.00 in0.0 mm 0.00 in0.0 mm 0.04 in1.0 mm
10:30 AM 48.6°F9.2°C 13.4°F-10.3°C 24% 3.1 mph SE5.0 kmh SE 6.9 mph11.1 kmh 29.65 in1004.1 mb 0.00 in0.0 mm 0.00 in0.0 mm 0.04 in1.0 mm
10:40 AM 49.3°F9.6°C 14.0°F-10.0°C 24% 0.7 mph SE1.1 kmh SE 4.5 mph7.2 kmh 29.65 in1004.1 mb 0.00 in0.0 mm 0.00 in0.0 mm 0.04 in1.0 mm
10:50 AM 50.4°F10.2°C 14.0°F-10.0°C 23% 0.7 mph SE1.1 kmh SE 6.9 mph11.1 kmh 29.65 in1004.1 mb 0.00 in0.0 mm 0.00 in0.0 mm 0.04 in1.0 mm
11:00 AM 49.8°F9.9°C 13.5°F-10.3°C 23% 0.7 mph SE1.1 kmh SE 5.4 mph8.7 kmh 29.65 in1004.1 mb 0.00 in0.0 mm 0.00 in0.0 mm 0.04 in1.0 mm
11:10 AM 49.3°F9.6°C 14.0°F-10.0°C 24% 2.2 mph SE3.5 kmh SE 3.8 mph6.1 kmh 29.65 in1004.1 mb 0.00 in0.0 mm 0.00 in0.0 mm 0.04 in1.0 mm
11:20 AM 49.8°F9.9°C 13.5°F-10.3°C 23% 1.6 mph S2.6 kmh S 5.4 mph8.7 kmh 29.65 in1004.1 mb 0.00 in0.0 mm 0.00 in0.0 mm 0.04 in1.0 mm
11:30 AM 50.2°F10.1°C 13.8°F-10.1°C 23% 1.6 mph SSE2.6 kmh SSE 5.4 mph8.7 kmh 29.64 in1003.7 mb 0.00 in0.0 mm 0.00 in0.0 mm 0.04 in1.0 mm
11:40 AM 51.4°F10.8°C 13.9°F-10.1°C 22% 3.8 mph S6.1 kmh S 7.6 mph12.2 kmh 29.63 in1003.4 mb 0.00 in0.0 mm 0.00 in0.0 mm 0.04 in1.0 mm
11:50 AM 52.0°F11.1°C 13.3°F-10.4°C 21% 2.2 mph S3.5 kmh S 6.9 mph11.1 kmh 29.63 in1003.4 mb 0.00 in0.0 mm 0.00 in0.0 mm 0.04 in1.0 mm
12:00 PM 52.2°F11.2°C 13.4°F-10.3°C 21% 1.6 mph SSE2.6 kmh SSE 6.9 mph11.1 kmh 29.63 in1003.4 mb 0.00 in0.0 mm 0.00 in0.0 mm 0.04 in1.0 mm
12:10 PM 52.9°F11.6°C 14.0°F-10.0°C 21% 3.8 mph S6.1 kmh S 6.9 mph11.1 kmh 29.62 in1003.0 mb 0.00 in0.0 mm 0.00 in0.0 mm 0.04 in1.0 mm
12:20 PM 52.9°F11.6°C 14.0°F-10.0°C 21% 2.2 mph S3.5 kmh S 7.6 mph12.2 kmh 29.62 in1003.0 mb 0.00 in0.0 mm 0.00 in0.0 mm 0.04 in1.0 mm
12:30 PM 54.0°F12.2°C 13.8°F-10.1°C 20% 1.6 mph S2.6 kmh S 6.9 mph11.1 kmh 29.61 in1002.7 mb 0.00 in0.0 mm 0.00 in0.0 mm 0.04 in1.0 mm
12:40 PM 54.5°F12.5°C 14.3°F-9.8°C 20% 3.1 mph S5.0 kmh S 6.9 mph11.1 kmh 29.61 in1002.7 mb 0.00 in0.0 mm 0.00 in0.0 mm 0.04 in1.0 mm
12:50 PM 55.0°F12.8°C 14.7°F-9.6°C 20% 3.1 mph SE5.0 kmh SE 7.6 mph12.2 kmh 29.60 in1002.4 mb 0.00 in0.0 mm 0.00 in0.0 mm 0.04 in1.0 mm
01:00 PM 55.9°F13.3°C 17.7°F-7.9°C 22% 3.1 mph SSE5.0 kmh SSE 6.0 mph9.7 kmh 29.60 in1002.4 mb 0.00 in0.0 mm 0.00 in0.0 mm 0.04 in1.0 mm
01:10 PM 56.8°F13.8°C 18.4°F-7.6°C 22% 1.6 mph SSE2.6 kmh SSE 6.9 mph11.1 kmh 29.60 in1002.4 mb 0.00 in0.0 mm 0.00 in0.0 mm 0.04 in1.0 mm
01:20 PM 56.3°F13.5°C 18.0°F-7.8°C 22% 6.0 mph SE9.7 kmh SE 9.2 mph14.8 kmh 29.59 in1002.0 mb 0.00 in0.0 mm 0.00 in0.0 mm 0.04 in1.0 mm
01:30 PM 57.0°F13.9°C 18.6°F-7.4°C 22% 3.8 mph S6.1 kmh S 7.6 mph12.2 kmh 29.59 in1002.0 mb 0.00 in0.0 mm 0.00 in0.0 mm 0.04 in1.0 mm
01:40 PM 57.0°F13.9°C 18.6°F-7.4°C 22% 5.4 mph S8.7 kmh S 8.3 mph13.4 kmh 29.58 in1001.7 mb 0.00 in0.0 mm 0.00 in0.0 mm 0.04 in1.0 mm
01:50 PM 57.6°F14.2°C 17.9°F-7.8°C 21% 2.2 mph SSE3.5 kmh SSE 6.9 mph11.1 kmh 29.58 in1001.7 mb 0.00 in0.0 mm 0.00 in0.0 mm 0.04 in1.0 mm
02:00 PM 58.8°F14.9°C 19.0°F-7.2°C 21% 2.2 mph S3.5 kmh S 8.3 mph13.4 kmh 29.58 in1001.7 mb 0.00 in0.0 mm 0.00 in0.0 mm 0.04 in1.0 mm
02:10 PM 58.6°F14.8°C 18.8°F-7.3°C 21% 3.8 mph S6.1 kmh S 7.6 mph12.2 kmh 29.58 in1001.7 mb 0.00 in0.0 mm 0.00 in0.0 mm 0.04 in1.0 mm
02:20 PM 58.3°F14.6°C 18.5°F-7.5°C 21% 3.1 mph S5.0 kmh S 7.6 mph12.2 kmh 29.58 in1001.7 mb 0.00 in0.0 mm 0.00 in0.0 mm 0.04 in1.0 mm
02:30 PM 58.6°F14.8°C 18.8°F-7.3°C 21% 6.9 mph S11.1 kmh S 9.2 mph14.8 kmh 29.57 in1001.4 mb 0.00 in0.0 mm 0.00 in0.0 mm 0.04 in1.0 mm
02:40 PM 57.7°F14.3°C 18.1°F-7.7°C 21% 4.5 mph SSW7.2 kmh SSW 9.2 mph14.8 kmh 29.57 in1001.4 mb 0.00 in0.0 mm 0.00 in0.0 mm 0.04 in1.0 mm
02:50 PM 59.5°F15.3°C 18.5°F-7.5°C 20% 3.1 mph S5.0 kmh S 11.4 mph18.3 kmh 29.56 in1001.0 mb 0.00 in0.0 mm 0.00 in0.0 mm 0.04 in1.0 mm
03:00 PM 59.4°F15.2°C 18.3°F-7.6°C 20% 4.5 mph SW7.2 kmh SW 7.6 mph12.2 kmh 29.56 in1001.0 mb 0.00 in0.0 mm 0.00 in0.0 mm 0.04 in1.0 mm
03:10 PM 57.9°F14.4°C 18.2°F-7.7°C 21% 3.1 mph SSE5.0 kmh SSE 9.8 mph15.8 kmh 29.57 in1001.4 mb 0.00 in0.0 mm 0.00 in0.0 mm 0.04 in1.0 mm
03:20 PM 57.2°F14.0°C 17.6°F-8.0°C 21% 4.5 mph S7.2 kmh S 6.9 mph11.1 kmh 29.57 in1001.4 mb 0.00 in0.0 mm 0.00 in0.0 mm 0.04 in1.0 mm
03:30 PM 56.5°F13.6°C 18.1°F-7.7°C 22% 2.2 mph SW3.5 kmh SW 6.9 mph11.1 kmh 29.57 in1001.4 mb 0.00 in0.0 mm 0.00 in0.0 mm 0.04 in1.0 mm
03:40 PM 54.5°F12.5°C 14.3°F-9.8°C 20% 4.5 mph SW7.2 kmh SW 6.0 mph9.7 kmh 29.57 in1001.4 mb 0.00 in0.0 mm 0.00 in0.0 mm 0.04 in1.0 mm
03:50 PM 53.8°F12.1°C 13.7°F-10.2°C 20% 1.6 mph SE2.6 kmh SE 7.6 mph12.2 kmh 29.56 in1001.0 mb 0.00 in0.0 mm 0.00 in0.0 mm 0.04 in1.0 mm
04:00 PM 54.7°F12.6°C 14.4°F-9.8°C 20% 3.1 mph NW5.0 kmh NW 6.0 mph9.7 kmh 29.56 in1001.0 mb 0.00 in0.0 mm 0.00 in0.0 mm 0.04 in1.0 mm
04:10 PM 53.2°F11.8°C 14.3°F-9.8°C 21% 0.7 mph W1.1 kmh W 3.8 mph6.1 kmh 29.57 in1001.4 mb 0.00 in0.0 mm 0.00 in0.0 mm 0.04 in1.0 mm
04:20 PM 52.5°F11.4°C 13.7°F-10.2°C 21% 3.8 mph NW6.1 kmh NW 5.4 mph8.7 kmh 29.57 in1001.4 mb 0.00 in0.0 mm 0.00 in0.0 mm 0.04 in1.0 mm
04:30 PM 52.2°F11.2°C 13.4°F-10.3°C 21% 5.4 mph WNW8.7 kmh WNW 6.9 mph11.1 kmh 29.57 in1001.4 mb 0.00 in0.0 mm 0.00 in0.0 mm 0.04 in1.0 mm
04:40 PM 51.8°F11.0°C 13.1°F-10.5°C 21% 1.6 mph N2.6 kmh N 7.6 mph12.2 kmh 29.57 in1001.4 mb 0.00 in0.0 mm 0.00 in0.0 mm 0.04 in1.0 mm
04:50 PM 50.2°F10.1°C 12.8°F-10.7°C 22% 1.6 mph NNW2.6 kmh NNW 4.5 mph7.2 kmh 29.57 in1001.4 mb 0.00 in0.0 mm 0.00 in0.0 mm 0.04 in1.0 mm
05:00 PM 48.4°F9.1°C 12.3°F-10.9°C 23% 0.7 mph SW1.1 kmh SW 3.1 mph5.0 kmh 29.58 in1001.7 mb 0.00 in0.0 mm 0.00 in0.0 mm 0.04 in1.0 mm
05:10 PM 48.4°F9.1°C 12.3°F-10.9°C 23% 3.8 mph NW6.1 kmh NW 7.6 mph12.2 kmh 29.58 in1001.7 mb 0.00 in0.0 mm 0.00 in0.0 mm 0.04 in1.0 mm
05:20 PM 47.5°F8.6°C 12.5°F-10.8°C 24% 2.2 mph NW3.5 kmh NW 6.0 mph9.7 kmh 29.58 in1001.7 mb 0.00 in0.0 mm 0.00 in0.0 mm 0.04 in1.0 mm
05:30 PM 47.1°F8.4°C 12.2°F-11.0°C 24% 5.4 mph NW8.7 kmh NW 9.2 mph14.8 kmh 29.59 in1002.0 mb 0.00 in0.0 mm 0.00 in0.0 mm 0.04 in1.0 mm
05:40 PM 46.6°F8.1°C 11.8°F-11.2°C 24% 3.8 mph NW6.1 kmh NW 7.6 mph12.2 kmh 29.59 in1002.0 mb 0.00 in0.0 mm 0.00 in0.0 mm 0.04 in1.0 mm
05:50 PM 46.4°F8.0°C 11.6°F-11.3°C 24% 6.0 mph WNW9.7 kmh WNW 10.7 mph17.2 kmh 29.59 in1002.0 mb 0.00 in0.0 mm 0.00 in0.0 mm 0.04 in1.0 mm
06:00 PM 46.0°F7.8°C 8.3°F-13.2°C 21% 2.2 mph W3.5 kmh W 8.3 mph13.4 kmh 29.60 in1002.4 mb 0.00 in0.0 mm 0.00 in0.0 mm 0.04 in1.0 mm
06:10 PM 46.9°F8.3°C 12.1°F-11.1°C 24% 3.1 mph NW5.0 kmh NW 6.9 mph11.1 kmh 29.59 in1002.0 mb 0.00 in0.0 mm 0.00 in0.0 mm 0.04 in1.0 mm
06:20 PM 46.4°F8.0°C 11.6°F-11.3°C 24% 6.0 mph NW9.7 kmh NW 8.3 mph13.4 kmh 29.59 in1002.0 mb 0.00 in0.0 mm 0.00 in0.0 mm 0.04 in1.0 mm
06:30 PM 46.0°F7.8°C 8.3°F-13.2°C 21% 6.0 mph WNW9.7 kmh WNW 9.2 mph14.8 kmh 29.59 in1002.0 mb 0.00 in0.0 mm 0.00 in0.0 mm 0.04 in1.0 mm
06:40 PM 45.9°F7.7°C 8.2°F-13.2°C 21% 3.8 mph WNW6.1 kmh WNW 9.2 mph14.8 kmh 29.59 in1002.0 mb 0.00 in0.0 mm 0.00 in0.0 mm 0.04 in1.0 mm
06:50 PM 46.6°F8.1°C 11.8°F-11.2°C 24% 3.8 mph NW6.1 kmh NW 6.0 mph9.7 kmh 29.59 in1002.0 mb 0.00 in0.0 mm 0.00 in0.0 mm 0.04 in1.0 mm
07:00 PM 46.9°F8.3°C 12.1°F-11.1°C 24% 2.2 mph NNW3.5 kmh NNW 6.9 mph11.1 kmh 29.58 in1001.7 mb 0.00 in0.0 mm 0.00 in0.0 mm 0.04 in1.0 mm
07:10 PM 46.0°F7.8°C 8.3°F-13.2°C 21% 1.6 mph WNW2.6 kmh WNW 5.4 mph8.7 kmh 29.58 in1001.7 mb 0.00 in0.0 mm 0.00 in0.0 mm 0.04 in1.0 mm
07:20 PM 44.6°F7.0°C 7.1°F-13.8°C 21% 1.6 mph WSW2.6 kmh WSW 4.5 mph7.2 kmh 29.57 in1001.4 mb 0.00 in0.0 mm 0.00 in0.0 mm 0.04 in1.0 mm
07:30 PM 46.4°F8.0°C 11.6°F-11.3°C 24% 4.5 mph NNW7.2 kmh NNW 9.8 mph15.8 kmh 29.57 in1001.4 mb 0.00 in0.0 mm 0.00 in0.0 mm 0.04 in1.0 mm
07:40 PM 47.7°F8.7°C 12.7°F-10.7°C 24% 3.8 mph NW6.1 kmh NW 8.3 mph13.4 kmh 29.57 in1001.4 mb 0.00 in0.0 mm 0.00 in0.0 mm 0.04 in1.0 mm
07:50 PM 46.0°F7.8°C 8.3°F-13.2°C 21% 2.2 mph ESE3.5 kmh ESE 4.5 mph7.2 kmh 29.56 in1001.0 mb 0.00 in0.0 mm 0.00 in0.0 mm 0.04 in1.0 mm
08:00 PM 44.8°F7.1°C 7.3°F-13.7°C 21% Calm Calm 3.8 mph6.1 kmh 29.56 in1001.0 mb 0.00 in0.0 mm 0.00 in0.0 mm 0.04 in1.0 mm
08:10 PM 43.3°F6.3°C 7.1°F-13.8°C 22% 1.6 mph E2.6 kmh E 5.4 mph8.7 kmh 29.56 in1001.0 mb 0.00 in0.0 mm 0.00 in0.0 mm 0.04 in1.0 mm
08:20 PM 42.1°F5.6°C 7.0°F-13.9°C 23% Calm Calm 3.1 mph5.0 kmh 29.56 in1001.0 mb 0.00 in0.0 mm 0.00 in0.0 mm 0.04 in1.0 mm
08:30 PM 41.4°F5.2°C 6.4°F-14.2°C 23% 2.2 mph NNW3.5 kmh NNW 4.5 mph7.2 kmh 29.56 in1001.0 mb 0.00 in0.0 mm 0.00 in0.0 mm 0.04 in1.0 mm
08:40 PM 40.6°F4.8°C 6.7°F-14.1°C 24% 3.1 mph N5.0 kmh N 4.5 mph7.2 kmh 29.55 in1000.7 mb 0.00 in0.0 mm 0.00 in0.0 mm 0.04 in1.0 mm
08:50 PM 43.5°F6.4°C 7.2°F-13.8°C 22% 4.5 mph NW7.2 kmh NW 7.6 mph12.2 kmh 29.55 in1000.7 mb 0.00 in0.0 mm 0.00 in0.0 mm 0.04 in1.0 mm
09:00 PM 44.6°F7.0°C 7.1°F-13.8°C 21% 3.1 mph NNW5.0 kmh NNW 7.6 mph12.2 kmh 29.55 in1000.7 mb 0.00 in0.0 mm 0.00 in0.0 mm 0.04 in1.0 mm
09:10 PM 44.1°F6.7°C 7.7°F-13.5°C 22% 4.5 mph NW7.2 kmh NW 9.8 mph15.8 kmh 29.55 in1000.7 mb 0.00 in0.0 mm 0.00 in0.0 mm 0.04 in1.0 mm
09:20 PM 43.7°F6.5°C 7.4°F-13.7°C 22% 3.8 mph NW6.1 kmh NW 7.6 mph12.2 kmh 29.55 in1000.7 mb 0.00 in0.0 mm 0.00 in0.0 mm 0.04 in1.0 mm
09:30 PM 44.1°F6.7°C 7.7°F-13.5°C 22% 6.0 mph NW9.7 kmh NW 10.7 mph17.2 kmh 29.55 in1000.7 mb 0.00 in0.0 mm 0.00 in0.0 mm 0.04 in1.0 mm
09:40 PM 44.4°F6.9°C 8.0°F-13.3°C 22% 4.5 mph WNW7.2 kmh WNW 10.7 mph17.2 kmh 29.54 in1000.3 mb 0.00 in0.0 mm 0.00 in0.0 mm 0.04 in1.0 mm
09:50 PM 45.0°F7.2°C 7.4°F-13.7°C 21% 3.8 mph W6.1 kmh W 10.7 mph17.2 kmh 29.54 in1000.3 mb 0.00 in0.0 mm 0.00 in0.0 mm 0.04 in1.0 mm